createdAt,value
2019-04-03T00:01:25.319Z,96736.34
2019-04-03T00:03:55.635Z,96736.70
2019-04-03T00:06:26.013Z,96731.72
2019-04-03T00:08:56.134Z,96738.40
2019-04-03T00:11:26.392Z,96726.81
2019-04-03T00:13:56.748Z,96727.30
2019-04-03T00:16:26.848Z,96733.39
2019-04-03T00:18:57.122Z,96725.22
2019-04-03T00:21:27.490Z,96726.88
2019-04-03T00:23:57.653Z,96722.35
2019-04-03T00:26:30.344Z,96721.27
2019-04-03T00:28:59.710Z,96716.63
2019-04-03T00:31:29.912Z,96716.73
2019-04-03T00:34:00.220Z,96710.59
2019-04-03T00:36:30.356Z,96707.11
2019-04-03T00:39:00.692Z,96709.77
2019-04-03T00:41:30.809Z,96708.45
2019-04-03T00:44:00.997Z,96711.91
2019-04-03T00:46:31.240Z,96712.30
2019-04-03T00:49:01.375Z,96707.59
2019-04-03T00:51:31.621Z,96702.00
2019-04-03T00:54:01.734Z,96709.78
2019-04-03T00:56:31.950Z,96699.64
2019-04-03T00:59:02.293Z,96707.95
2019-04-03T01:01:32.520Z,96708.49
2019-04-03T01:04:02.928Z,96701.02
2019-04-03T01:06:33.189Z,96701.81
2019-04-03T01:09:03.428Z,96700.44
2019-04-03T01:11:33.565Z,96704.98
2019-04-03T01:14:03.870Z,96706.63
2019-04-03T01:16:34.092Z,96708.08
2019-04-03T01:19:05.757Z,96707.81
2019-04-03T01:21:37.431Z,96708.02
2019-04-03T01:24:08.507Z,96714.13
2019-04-03T01:26:40.560Z,96708.24
2019-04-03T01:29:12.638Z,96715.12
2019-04-03T01:31:44.384Z,96710.14
2019-04-03T01:34:17.236Z,96704.05
2019-04-03T01:36:48.138Z,96703.79
2019-04-03T01:39:19.133Z,96699.61
2019-04-03T01:41:51.442Z,96697.30
2019-04-03T01:44:24.317Z,96693.87
2019-04-03T01:46:54.114Z,96690.44
2019-04-03T01:49:24.322Z,96681.91
2019-04-03T01:51:54.462Z,96685.98
2019-04-03T01:54:24.674Z,96680.42
2019-04-03T01:56:54.965Z,96678.33
2019-04-03T01:59:25.214Z,96667.78
2019-04-03T02:01:55.573Z,96674.21
2019-04-03T02:04:25.905Z,96670.22
2019-04-03T02:06:56.090Z,96675.55
2019-04-03T02:09:26.306Z,96668.39
2019-04-03T02:11:56.534Z,96665.86
2019-04-03T02:14:26.980Z,96660.80
2019-04-03T02:16:57.138Z,96658.20
2019-04-03T02:19:27.363Z,96660.63
2019-04-03T02:21:58.504Z,96657.33
2019-04-03T02:24:31.071Z,96661.33
2019-04-03T02:27:03.086Z,96653.33
2019-04-03T02:29:33.837Z,96657.26
2019-04-03T02:32:04.017Z,96653.26
2019-04-03T02:34:35.592Z,96648.00
2019-04-03T02:37:06.259Z,96653.27
2019-04-03T02:39:36.728Z,96651.47
2019-04-03T02:42:08.881Z,96655.43
2019-04-03T02:44:39.140Z,96655.16
2019-04-03T02:47:09.413Z,96652.20
2019-04-03T02:49:42.785Z,96654.13
2019-04-03T02:52:12.303Z,96650.14
2019-04-03T02:54:44.414Z,96652.06
2019-04-03T02:57:17.540Z,96647.57
2019-04-03T02:59:46.412Z,96663.63
2019-04-03T03:02:16.701Z,96662.11
2019-04-03T03:04:47.086Z,96664.08
2019-04-03T03:07:17.733Z,96661.17
2019-04-03T03:09:48.543Z,96667.09
2019-04-03T03:12:19.382Z,96666.56
2019-04-03T03:14:50.418Z,96673.52
2019-04-03T03:17:22.988Z,96676.20
2019-04-03T03:19:54.175Z,96663.75
2019-04-03T03:22:25.022Z,96665.36
2019-04-03T03:24:59.690Z,96667.81
2019-04-03T03:27:30.401Z,96670.98
2019-04-03T03:30:00.772Z,96665.41
2019-04-03T03:32:35.308Z,96668.61
2019-04-03T03:35:11.823Z,96678.23
2019-04-03T03:37:37.748Z,96669.44
2019-04-03T03:40:08.534Z,96662.79
2019-04-03T03:42:39.288Z,96663.34
2019-04-03T03:45:11.243Z,96662.59
2019-04-03T03:47:42.505Z,96652.45
2019-04-03T03:50:13.404Z,96655.95
2019-04-03T03:52:43.993Z,96643.19
2019-04-03T03:55:14.729Z,96648.81
2019-04-03T03:57:46.044Z,96647.50
2019-04-03T04:00:17.179Z,96641.10
2019-04-03T04:02:47.971Z,96641.09
2019-04-03T04:05:21.370Z,96644.29
2019-04-03T04:07:57.156Z,96642.19
2019-04-03T04:10:35.024Z,96633.98
2019-04-03T04:13:02.997Z,96630.52
2019-04-03T04:15:33.407Z,96630.78
2019-04-03T04:18:04.976Z,96629.72
2019-04-03T04:20:38.109Z,96629.98
2019-04-03T04:23:07.878Z,96625.72
2019-04-03T04:25:38.840Z,96624.15
2019-04-03T04:28:09.877Z,96627.88
2019-04-03T04:30:42.093Z,96627.60
2019-04-03T04:33:12.311Z,96622.83
2019-04-03T04:35:42.490Z,96626.00
2019-04-03T04:38:12.996Z,96624.70
2019-04-03T04:40:43.365Z,96623.61
2019-04-03T04:43:13.623Z,96624.97
2019-04-03T04:45:44.024Z,96620.96
2019-04-03T04:48:16.528Z,96621.51
2019-04-03T04:50:46.584Z,96618.58
2019-04-03T04:53:16.795Z,96617.77
2019-04-03T04:55:46.980Z,96614.06
2019-04-03T04:58:17.248Z,96610.34
2019-04-03T05:00:47.835Z,96607.43
2019-04-03T05:03:17.993Z,96604.52
2019-04-03T05:05:48.281Z,96600.52
2019-04-03T05:08:18.510Z,96602.38
2019-04-03T05:10:49.424Z,96599.45
2019-04-03T05:13:19.736Z,96596.81
2019-04-03T05:15:50.044Z,96601.04
2019-04-03T05:18:20.395Z,96592.30
2019-04-03T05:20:51.403Z,96593.34
2019-04-03T05:23:22.119Z,96603.70
2019-04-03T05:25:52.287Z,96603.33
2019-04-03T05:28:24.805Z,96605.73
2019-04-03T05:30:54.604Z,96601.28
2019-04-03T05:33:24.878Z,96602.64
2019-04-03T05:35:55.151Z,96592.01
2019-04-03T05:38:25.484Z,96598.67
2019-04-03T05:40:56.409Z,96592.04
2019-04-03T05:43:28.754Z,96592.81
2019-04-03T05:45:59.610Z,96595.73
2019-04-03T05:48:30.524Z,96599.20
2019-04-03T05:51:00.910Z,96597.61
2019-04-03T05:53:31.173Z,96594.42
2019-04-03T05:56:01.562Z,96597.33
2019-04-03T05:58:31.963Z,96593.87
2019-04-03T06:01:04.866Z,96587.21
2019-04-03T06:03:42.280Z,96589.34
2019-04-03T06:06:06.157Z,96592.79
2019-04-03T12:39:50.898Z,96315.03
2019-04-03T12:42:18.780Z,96315.59
2019-04-03T12:44:46.099Z,96324.09
2019-04-03T12:47:14.142Z,96312.91
2019-04-03T12:49:41.394Z,96315.05
2019-04-03T12:52:08.815Z,96314.56
2019-04-03T12:54:36.615Z,96313.47
2019-04-03T12:57:04.557Z,96306.58
2019-04-03T12:59:32.955Z,96308.01
2019-04-03T13:03:19.344Z,96291.69
2019-04-03T13:05:49.823Z,96288.75
2019-04-03T13:08:21.684Z,96287.06
2019-04-03T13:10:52.355Z,96288.47
2019-04-03T13:13:22.615Z,96282.13
2019-04-03T13:15:52.788Z,96279.67
2019-04-03T13:18:23.229Z,96269.88
2019-04-03T13:20:53.679Z,96257.12
2019-04-03T13:23:24.424Z,96243.41
2019-04-03T13:25:54.722Z,96238.49
2019-04-03T13:28:25.949Z,96224.02
2019-04-03T13:30:56.820Z,96215.05
2019-04-03T13:33:27.071Z,96211.56
2019-04-03T13:35:57.505Z,96214.71
2019-04-03T13:38:28.865Z,96222.63
2019-04-03T13:41:00.001Z,96228.02
2019-04-03T13:43:30.757Z,96223.20
2019-04-03T13:46:03.847Z,96238.22
2019-04-03T13:48:33.485Z,96236.25
2019-04-03T13:51:04.495Z,96238.56
2019-04-03T13:53:35.068Z,96227.16
2019-04-03T13:56:08.284Z,96231.11
2019-04-03T13:58:38.397Z,96238.55
2019-04-03T14:01:09.979Z,96219.53
2019-04-03T14:03:40.205Z,96216.23
2019-04-03T14:06:10.706Z,96211.12
2019-04-03T14:08:41.011Z,96200.70
2019-04-03T14:11:11.843Z,96196.72
2019-04-03T14:13:43.562Z,96185.56
2019-04-03T14:16:21.691Z,96186.05
2019-04-03T14:18:49.546Z,96187.25
2019-04-03T14:21:19.137Z,96173.34
2019-04-03T14:23:49.741Z,96185.80
2019-04-03T14:26:20.412Z,96195.45
2019-04-03T14:28:50.947Z,96204.59
2019-04-03T14:31:32.770Z,96200.41
2019-04-03T14:33:54.962Z,96215.23
2019-04-03T14:36:27.451Z,96208.41
2019-04-03T14:38:58.410Z,96205.52
2019-04-03T14:41:28.844Z,96193.23
2019-04-03T14:44:01.922Z,96190.84
2019-04-03T14:46:31.834Z,96194.80
2019-04-03T14:49:03.234Z,96184.03
2019-04-03T14:51:34.254Z,96179.61
2019-04-03T14:54:07.515Z,96185.11
2019-04-03T14:56:36.968Z,96186.06
2019-04-03T14:59:08.048Z,96196.03
2019-04-03T15:03:15.999Z,96187.01
2019-04-03T15:05:46.288Z,96189.22
2019-04-03T15:08:17.595Z,96188.41
2019-04-03T15:10:50.089Z,96188.69
2019-04-03T15:13:20.255Z,96184.73
2019-04-03T15:15:51.040Z,96181.41
2019-04-03T15:18:21.794Z,96186.98
2019-04-03T15:20:52.050Z,96191.84
2019-04-03T15:23:22.411Z,96193.96
2019-04-03T15:25:53.359Z,96204.05
2019-04-03T15:28:23.738Z,96213.06
2019-04-03T15:30:55.947Z,96200.34
2019-04-03T15:33:27.432Z,96217.05
2019-04-03T15:35:57.899Z,96216.77
2019-04-03T15:38:28.063Z,96236.36
2019-04-03T15:40:59.762Z,96236.08
2019-04-03T15:43:31.467Z,96224.19
2019-04-03T15:46:01.798Z,96226.55
2019-04-03T15:48:32.353Z,96216.73
2019-04-03T15:51:05.639Z,96206.67
2019-04-03T15:53:34.988Z,96208.80
2019-04-03T15:56:05.895Z,96219.61
2019-04-03T15:58:36.291Z,96265.62
2019-04-03T16:01:08.460Z,96342.89
2019-04-03T16:03:38.767Z,96370.53
2019-04-03T16:06:09.140Z,96383.42
2019-04-03T16:08:39.410Z,96326.42
2019-04-03T16:11:09.717Z,96249.52
2019-04-03T16:13:40.554Z,96290.02
2019-04-03T16:16:10.738Z,96309.72
2019-04-03T16:18:41.115Z,96337.09
2019-04-03T16:21:11.901Z,96349.69
2019-04-03T16:23:42.706Z,96327.90
2019-04-03T16:26:14.083Z,96313.45
2019-04-03T16:28:44.283Z,96317.05
2019-04-03T16:31:14.917Z,96326.57
2019-04-03T16:33:45.538Z,96334.06
2019-04-03T16:36:17.056Z,96336.70
2019-04-03T16:38:47.616Z,96352.09
2019-04-03T16:41:17.923Z,96369.76
2019-04-03T16:43:48.219Z,96366.16
2019-04-03T16:46:24.507Z,96361.02
2019-04-03T16:48:54.828Z,96343.36
2019-04-03T16:51:25.116Z,96339.42
2019-04-03T16:53:55.701Z,96357.94
2019-04-03T16:56:26.412Z,96380.37
2019-04-03T16:58:59.249Z,96383.66
2019-04-03T17:03:15.781Z,96377.16
2019-04-03T17:05:47.396Z,96370.02
2019-04-03T17:08:18.154Z,96366.45
2019-04-03T17:10:48.419Z,96370.98
2019-04-03T17:13:18.878Z,96384.12
2019-04-03T17:15:50.703Z,96382.33
2019-04-03T17:18:21.233Z,96393.55
2019-04-03T17:20:53.204Z,96401.01
2019-04-03T17:23:24.484Z,96398.75
2019-04-03T17:25:55.817Z,96401.13
2019-04-03T17:28:26.677Z,96388.29
2019-04-03T17:30:57.523Z,96380.07
2019-04-03T17:33:27.783Z,96370.25
2019-04-03T17:35:58.204Z,96368.48
2019-04-03T17:38:31.489Z,96361.46
2019-04-03T17:41:00.694Z,96358.02
2019-04-03T17:43:31.043Z,96353.82
2019-04-03T17:46:01.577Z,96355.13
2019-04-03T17:48:31.829Z,96361.61
2019-04-03T17:51:02.540Z,96340.67
2019-04-03T17:53:34.856Z,96345.52
2019-04-03T17:56:05.776Z,96357.92
2019-04-03T17:58:36.077Z,96360.51
2019-04-03T18:01:06.587Z,96360.13
2019-04-03T18:03:36.857Z,96368.72
2019-04-03T18:06:07.202Z,96373.55
2019-04-03T18:08:37.584Z,96372.59
2019-04-03T18:11:07.867Z,96371.38
2019-04-03T18:13:38.159Z,96386.30
2019-04-03T18:16:08.299Z,96389.18
2019-04-03T18:18:38.515Z,96388.75
2019-04-03T18:21:09.195Z,96387.63
2019-04-03T18:23:39.581Z,96380.87
2019-04-03T18:26:09.938Z,96378.67
2019-04-03T18:28:40.326Z,96381.55
2019-04-03T18:31:11.785Z,96374.02
2019-04-03T18:33:42.853Z,96384.27
2019-04-03T18:36:13.185Z,96380.96
2019-04-03T18:38:43.393Z,96380.09
2019-04-03T18:41:16.606Z,96379.00
2019-04-03T18:43:45.726Z,96371.93
2019-04-03T18:46:22.032Z,96379.05
2019-04-03T18:48:54.598Z,96386.02
2019-04-03T18:51:20.350Z,96393.36
2019-04-03T18:53:50.587Z,96398.33
2019-04-03T18:56:20.776Z,96409.69
2019-04-03T18:58:51.135Z,96415.68
2019-04-03T19:03:15.587Z,96427.34
2019-04-03T19:05:46.039Z,96425.80
2019-04-03T19:08:18.298Z,96425.00
2019-04-03T19:10:48.383Z,96431.02
2019-04-03T19:13:18.972Z,96420.39
2019-04-03T19:15:50.057Z,96423.77
2019-04-03T19:18:21.115Z,96423.83
2019-04-03T19:20:51.433Z,96422.31
2019-04-03T19:23:21.768Z,96419.89
2019-04-03T19:25:52.153Z,96412.33
2019-04-03T19:28:22.353Z,96411.94
2019-04-03T19:30:52.603Z,96410.28
2019-04-03T19:33:22.994Z,96416.41
2019-04-03T19:35:53.307Z,96407.84
2019-04-03T19:38:23.617Z,96401.55
2019-04-03T19:40:54.018Z,96411.08
2019-04-03T19:43:24.481Z,96416.64
2019-04-03T19:45:54.674Z,96410.03
2019-04-03T19:48:25.641Z,96415.77
2019-04-03T19:50:56.960Z,96413.98
2019-04-03T19:53:27.294Z,96419.30
2019-04-03T19:55:57.617Z,96416.48
2019-04-03T19:58:29.716Z,96415.16
2019-04-03T20:00:59.974Z,96403.44
2019-04-03T20:03:30.646Z,96403.34
2019-04-03T20:06:00.905Z,96405.13
2019-04-03T20:08:31.308Z,96407.77
2019-04-03T20:11:03.029Z,96398.07
2019-04-03T20:13:34.286Z,96396.63
2019-04-03T20:16:04.677Z,96379.32
2019-04-03T20:18:35.193Z,96371.41
2019-04-03T20:21:06.601Z,96371.20
2019-04-03T20:23:36.927Z,96374.70
2019-04-03T20:26:07.282Z,96372.00
2019-04-03T20:28:37.721Z,96375.86
2019-04-03T20:31:08.327Z,96376.36
2019-04-03T20:33:38.631Z,96373.51
2019-04-03T20:36:08.952Z,96374.67
2019-04-03T20:38:39.179Z,96375.06
2019-04-03T20:41:09.468Z,96365.45
2019-04-03T20:43:42.689Z,96362.09
2019-04-03T20:46:11.859Z,96356.63
2019-04-03T20:48:42.020Z,96364.42
2019-04-03T20:51:12.243Z,96367.47
2019-04-03T20:53:43.416Z,96366.72
2019-04-03T20:56:14.312Z,96371.92
2019-04-03T20:58:55.147Z,96369.88
2019-04-03T21:03:15.662Z,96368.80
2019-04-03T21:05:48.520Z,96373.57
2019-04-03T21:08:17.985Z,96372.75
2019-04-03T21:10:48.917Z,96377.37
2019-04-03T21:13:19.268Z,96380.59
2019-04-03T21:15:52.116Z,96389.47
2019-04-03T21:18:21.844Z,96393.91
2019-04-03T21:20:54.454Z,96389.75
2019-04-03T21:23:24.929Z,96382.43
2019-04-03T21:25:55.205Z,96384.08
2019-04-03T21:28:25.438Z,96381.49
2019-04-03T21:30:55.629Z,96388.63
2019-04-03T21:33:25.903Z,96382.67
2019-04-03T21:35:56.149Z,96377.04
2019-04-03T21:38:26.358Z,96374.41
2019-04-03T21:40:56.485Z,96374.47
2019-04-03T21:43:27.219Z,96371.91
2019-04-03T21:45:58.728Z,96369.95
2019-04-03T21:48:29.141Z,96365.71
2019-04-03T21:50:59.589Z,96365.69
2019-04-03T21:53:29.803Z,96383.54
2019-04-03T21:56:02.074Z,96383.70
2019-04-03T21:58:32.027Z,96383.33
2019-04-03T22:01:24.983Z,96394.80
2019-04-03T22:03:55.348Z,96379.44
2019-04-03T22:06:27.590Z,96387.02
2019-04-03T22:09:00.379Z,96390.60
2019-04-03T22:11:30.300Z,96387.75
2019-04-03T22:14:02.574Z,96378.50
2019-04-03T22:16:32.861Z,96373.44
2019-04-03T22:19:03.166Z,96381.72
2019-04-03T22:21:33.590Z,96375.91
2019-04-03T22:24:06.615Z,96380.00
2019-04-03T22:26:36.157Z,96385.09
2019-04-03T22:29:06.619Z,96395.35
2019-04-03T22:31:36.769Z,96386.33
2019-04-03T22:34:06.871Z,96374.84
2019-04-03T22:36:37.065Z,96372.78
2019-04-03T22:39:08.776Z,96359.31
2019-04-03T22:41:39.001Z,96365.08
2019-04-03T22:44:09.285Z,96361.15
2019-04-03T22:46:39.551Z,96363.03
2019-04-03T22:49:09.676Z,96366.61
2019-04-03T22:51:40.748Z,96373.20
2019-04-03T22:54:12.719Z,96368.38
2019-04-03T22:56:42.804Z,96361.05
2019-04-03T22:59:12.949Z,96358.98
2019-04-03T23:03:15.307Z,96364.70
2019-04-03T23:05:47.710Z,96368.14
2019-04-03T23:08:17.444Z,96370.47
2019-04-03T23:10:47.669Z,96352.91
2019-04-03T23:13:18.369Z,96335.02
2019-04-03T23:15:48.588Z,96349.09
2019-04-03T23:18:18.735Z,96342.15
2019-04-03T23:20:49.124Z,96338.55
2019-04-03T23:23:19.394Z,96333.81
2019-04-03T23:25:49.693Z,96339.66
2019-04-03T23:28:19.889Z,96316.00
2019-04-03T23:30:50.027Z,96321.98
2019-04-03T23:33:20.240Z,96314.22
2019-04-03T23:35:51.161Z,96307.84
2019-04-03T23:38:21.881Z,96309.27
2019-04-03T23:40:52.184Z,96301.25
2019-04-03T23:43:22.367Z,96291.45
2019-04-03T23:45:56.131Z,96288.73
2019-04-03T23:48:26.295Z,96280.82
2019-04-03T23:50:56.584Z,96259.59
2019-04-03T23:53:26.884Z,96267.71
2019-04-03T23:55:57.081Z,96272.08
2019-04-03T23:58:27.230Z,96263.17
